Time;durP1;ratioP1;P1;durP2;ratioP2;P2;SDS_P1;SDS_P2;PMS_P1;PMS_P2;Temp;Humidity;BMP_temperature;BMP_pressure;BME280_temperature;BME280_humidity;BME280_pressure;Samples;Min_cycle;Max_cycle;Signal;HPM_P1;HPM_P2
2021/04/21 00:01:59;;;;;;;7.65;5.15;;;12.10;59.70;;;;;;5074716;28;20105;-74
2021/04/21 00:04:28;;;;;;;7.82;5.25;;;12.10;59.70;;;;;;5076098;28;20064;-76
2021/04/21 00:06:56;;;;;;;7.30;5.45;;;12.10;59.60;;;;;;5075574;28;20484;-75
2021/04/21 00:09:22;;;;;;;8.43;5.32;;;12.10;59.60;;;;;;5075800;28;20379;-75
2021/04/21 00:11:50;;;;;;;8.32;5.55;;;12.10;59.50;;;;;;5075489;28;20036;-76
2021/04/21 00:14:20;;;;;;;9.75;5.57;;;12.10;59.50;;;;;;5075514;28;20109;-75
2021/04/21 00:16:47;;;;;;;8.07;5.30;;;12.10;59.40;;;;;;5074174;28;20434;-76
2021/04/21 00:19:16;;;;;;;8.13;5.53;;;12.00;59.40;;;;;;5075855;28;20037;-74
2021/04/21 00:21:44;;;;;;;10.27;5.47;;;12.00;59.40;;;;;;5074171;28;20077;-76
2021/04/21 00:24:11;;;;;;;6.60;5.00;;;12.10;59.40;;;;;;5074305;28;20032;-76
2021/04/21 00:26:38;;;;;;;6.55;4.65;;;12.00;59.30;;;;;;5074387;28;20032;-76
2021/04/21 00:29:05;;;;;;;7.18;5.00;;;12.00;59.30;;;;;;5075583;28;20040;-76
2021/04/21 00:31:31;;;;;;;7.35;5.10;;;12.00;59.40;;;;;;5074302;28;20077;-76
2021/04/21 00:33:59;;;;;;;6.75;5.10;;;12.00;59.30;;;;;;5075246;28;20123;-77
2021/04/21 00:36:27;;;;;;;8.25;5.25;;;12.00;59.30;;;;;;5074107;28;20035;-76
2021/04/21 00:38:54;;;;;;;7.45;4.95;;;12.00;59.30;;;;;;5075118;28;20032;-77
2021/04/21 00:41:46;;;;;;;10.15;5.25;;;12.00;59.40;;;;;;5073782;28;20043;-76
2021/04/21 00:44:30;;;;;;;8.52;5.70;;;12.00;59.50;;;;;;5073682;28;20488;-76
2021/04/21 00:47:07;;;;;;;9.38;5.55;;;11.90;59.70;;;;;;5073647;28;20037;-75
2021/04/21 00:49:54;;;;;;;9.73;5.85;;;11.90;60.00;;;;;;5074605;28;20033;-75
2021/04/21 00:52:31;;;;;;;8.02;5.88;;;11.70;60.90;;;;;;5073402;28;20029;-76
2021/04/21 00:55:06;;;;;;;11.93;6.35;;;11.60;60.60;;;;;;5073398;28;20036;-76
2021/04/21 00:57:47;;;;;;;9.65;6.10;;;11.50;60.80;;;;;;5074768;28;20060;-76
2021/04/21 01:00:19;;;;;;;9.38;5.95;;;11.50;61.10;;;;;;5074737;28;20033;-76
2021/04/21 01:03:09;;;;;;;9.23;5.95;;;11.40;61.20;;;;;;5073405;28;20126;-76
2021/04/21 01:05:50;;;;;;;9.38;6.10;;;11.30;61.40;;;;;;5073442;28;20399;-75
2021/04/21 01:08:27;;;;;;;10.27;6.30;;;11.20;61.60;;;;;;5074564;28;20488;-75
2021/04/21 01:10:59;;;;;;;8.20;5.50;;;11.10;61.90;;;;;;5074318;28;20480;-74
2021/04/21 01:13:29;;;;;;;10.65;6.63;;;11.00;62.00;;;;;;5074217;28;20085;-75
2021/04/21 01:15:56;;;;;;;10.20;6.28;;;10.90;62.30;;;;;;5072942;28;20059;-75
2021/04/21 01:18:24;;;;;;;10.27;6.28;;;10.80;62.60;;;;;;5074452;28;20028;-75
2021/04/21 01:21:11;;;;;;;9.60;6.97;;;10.70;62.90;;;;;;5074208;28;20162;-75
2021/04/21 01:23:57;;;;;;;9.10;6.10;;;10.70;63.30;;;;;;5072844;28;20029;-75
2021/04/21 01:26:30;;;;;;;9.90;6.75;;;10.60;63.40;;;;;;5074056;28;20476;-75
2021/04/21 01:28:58;;;;;;;9.77;6.65;;;10.50;63.60;;;;;;5072958;28;20083;-75
2021/04/21 01:31:31;;;;;;;8.70;6.65;;;10.50;64.00;;;;;;5074080;28;20028;-74
2021/04/21 01:33:58;;;;;;;10.65;7.05;;;10.40;64.20;;;;;;5072441;28;20020;-74
2021/04/21 01:36:25;;;;;;;14.68;7.55;;;10.30;64.40;;;;;;5073751;28;20099;-74
2021/04/21 01:38:53;;;;;;;13.10;7.53;;;10.30;64.80;;;;;;5072714;28;20088;-75
2021/04/21 01:41:23;;;;;;;12.18;7.35;;;10.20;65.10;;;;;;5072357;28;20020;-75
2021/04/21 01:43:54;;;;;;;12.13;7.22;;;10.10;65.20;;;;;;5072278;28;20021;-75
2021/04/21 01:46:21;;;;;;;10.88;7.30;;;10.10;65.40;;;;;;5072302;28;20025;-75
2021/04/21 01:48:50;;;;;;;12.93;7.85;;;10.00;65.60;;;;;;5072080;28;20078;-75
2021/04/21 01:51:31;;;;;;;10.25;7.20;;;10.00;65.90;;;;;;5072232;28;20097;-74
2021/04/21 01:54:15;;;;;;;10.27;7.10;;;9.90;66.00;;;;;;5073492;28;20495;-75
2021/04/21 01:57:11;;;;;;;10.93;7.72;;;9.90;66.10;;;;;;5072145;28;20467;-75
2021/04/21 01:59:47;;;;;;;9.55;7.00;;;9.90;66.40;;;;;;5073790;28;20078;-75
2021/04/21 02:02:16;;;;;;;14.90;7.20;;;9.80;66.40;;;;;;5072557;28;20027;-76
2021/04/21 02:05:03;;;;;;;10.73;7.07;;;9.80;66.60;;;;;;5073676;28;20028;-76
2021/04/21 02:07:45;;;;;;;12.68;7.65;;;9.80;66.70;;;;;;5074091;28;20056;-75
2021/04/21 02:10:35;;;;;;;13.75;7.82;;;9.80;66.90;;;;;;5072342;28;20036;-75
2021/04/21 02:13:16;;;;;;;11.48;7.35;;;9.80;67.10;;;;;;5073483;28;20405;-75
2021/04/21 02:15:46;;;;;;;13.05;8.20;;;9.70;67.00;;;;;;5072179;28;20403;-75
2021/04/21 02:18:49;;;;;;;13.80;7.63;;;9.70;67.10;;;;;;5072061;28;20016;-75
2021/04/21 02:21:30;;;;;;;13.23;7.55;;;9.70;67.40;;;;;;5072086;28;20082;-75
2021/04/21 02:24:08;;;;;;;12.02;8.00;;;9.70;67.50;;;;;;5073397;28;20032;-76
2021/04/21 02:26:42;;;;;;;11.52;7.75;;;9.70;67.50;;;;;;5071945;28;20062;-75
2021/04/21 02:29:26;;;;;;;12.93;7.53;;;9.60;67.60;;;;;;5073626;28;20112;-76
2021/04/21 02:31:51;;;;;;;14.02;8.77;;;9.60;67.80;;;;;;5073105;28;20028;-76
2021/04/21 02:34:44;;;;;;;10.20;7.78;;;9.60;67.90;;;;;;5071666;28;20526;-75
2021/04/21 02:37:13;;;;;;;11.98;8.23;;;9.60;68.10;;;;;;5071735;28;20028;-75
2021/04/21 02:39:58;;;;;;;13.65;8.85;;;9.60;68.20;;;;;;5073068;28;20031;-76
2021/04/21 02:42:46;;;;;;;15.05;8.40;;;9.50;68.30;;;;;;5072985;28;20017;-75
2021/04/21 02:45:28;;;;;;;12.93;8.52;;;9.60;68.50;;;;;;5071552;28;20394;-75
2021/04/21 02:48:17;;;;;;;17.17;9.02;;;9.60;68.50;;;;;;5072765;28;20028;-75
2021/04/21 02:51:09;;;;;;;14.07;8.55;;;9.60;68.50;;;;;;5071305;28;20041;-76
2021/04/21 02:53:59;;;;;;;12.18;8.50;;;9.60;68.60;;;;;;5061830;28;20067;-75
2021/04/21 02:56:43;;;;;;;10.25;7.80;;;9.60;69.20;;;;;;5072898;28;20012;-75
2021/04/21 02:59:28;;;;;;;17.27;8.93;;;9.70;68.50;;;;;;5070889;28;20028;-76
2021/04/21 03:02:10;;;;;;;12.48;8.40;;;9.70;68.50;;;;;;5072698;28;20468;-76
2021/04/21 03:05:04;;;;;;;12.77;8.43;;;9.70;68.40;;;;;;5072683;28;20483;-76
2021/04/21 03:07:55;;;;;;;13.60;8.27;;;9.70;68.50;;;;;;5072829;28;20021;-76
2021/04/21 03:10:25;;;;;;;14.52;8.07;;;9.70;68.60;;;;;;5071371;28;20031;-76
2021/04/21 03:13:03;;;;;;;11.85;7.80;;;9.70;68.50;;;;;;5071380;28;20025;-76
2021/04/21 03:15:31;;;;;;;12.63;8.35;;;9.70;68.50;;;;;;5072648;28;20032;-76
2021/04/21 03:17:59;;;;;;;12.50;8.07;;;9.70;68.50;;;;;;5072503;28;20063;-76
2021/04/21 03:20:26;;;;;;;11.73;8.55;;;9.70;68.60;;;;;;5071338;28;20012;-76
2021/04/21 03:22:57;;;;;;;13.10;8.73;;;9.70;68.60;;;;;;5071197;28;20052;-75
2021/04/21 03:25:32;;;;;;;11.73;8.10;;;9.70;68.70;;;;;;5072484;28;20024;-76
2021/04/21 03:28:01;;;;;;;13.95;8.55;;;9.70;68.70;;;;;;5071092;28;20028;-76
2021/04/21 03:30:30;;;;;;;14.30;9.02;;;9.70;68.70;;;;;;5072415;28;20020;-76
2021/04/21 03:33:18;;;;;;;13.68;8.60;;;9.70;68.80;;;;;;5072306;28;20507;-76
2021/04/21 03:35:48;;;;;;;14.27;9.02;;;9.70;68.90;;;;;;5071089;28;20041;-76
2021/04/21 03:38:16;;;;;;;12.88;8.98;;;9.70;69.00;;;;;;5072299;28;20024;-76
2021/04/21 03:40:42;;;;;;;13.30;8.90;;;9.70;69.10;;;;;;5071002;28;20114;-76
2021/04/21 03:43:09;;;;;;;15.35;9.15;;;9.70;69.20;;;;;;5071062;28;20017;-76
2021/04/21 03:45:36;;;;;;;14.00;8.70;;;9.70;69.10;;;;;;5072620;28;20020;-76
2021/04/21 03:48:03;;;;;;;15.18;9.25;;;9.70;69.20;;;;;;5070886;28;20024;-76
2021/04/21 03:50:33;;;;;;;13.50;8.80;;;9.70;69.20;;;;;;5071693;28;20052;-75
2021/04/21 03:53:05;;;;;;;13.02;8.60;;;9.70;69.20;;;;;;5072086;28;20095;-76
2021/04/21 03:55:32;;;;;;;12.15;9.25;;;9.70;69.30;;;;;;5070717;28;20116;-76
2021/04/21 03:58:02;;;;;;;12.27;8.80;;;9.70;69.40;;;;;;5070802;28;20017;-76
2021/04/21 04:00:31;;;;;;;12.63;9.02;;;9.60;69.40;;;;;;5072075;28;20031;-76
2021/04/21 04:02:59;;;;;;;13.73;8.75;;;9.60;69.40;;;;;;5072478;28;20049;-76
2021/04/21 04:05:33;;;;;;;12.45;9.00;;;9.60;69.50;;;;;;5070711;28;20025;-76
2021/04/21 04:08:03;;;;;;;13.40;9.40;;;9.60;69.50;;;;;;5070613;28;20016;-76
2021/04/21 04:10:34;;;;;;;13.98;9.25;;;9.60;69.60;;;;;;5072256;28;20024;-76
2021/04/21 04:13:05;;;;;;;15.82;9.90;;;9.60;69.70;;;;;;5074149;28;20024;-75
2021/04/21 04:15:31;;;;;;;14.23;9.80;;;9.60;69.80;;;;;;5075386;28;20138;-76
2021/04/21 04:18:00;;;;;;;11.70;8.80;;;9.60;69.80;;;;;;5074043;28;20487;-76
2021/04/21 04:20:28;;;;;;;15.40;9.55;;;9.60;69.80;;;;;;5074057;28;20100;-76
2021/04/21 04:22:58;;;;;;;14.60;9.77;;;9.60;69.90;;;;;;5075311;28;20389;-76
2021/04/21 04:25:26;;;;;;;15.02;9.70;;;9.60;69.90;;;;;;5075339;28;20017;-74
2021/04/21 04:27:54;;;;;;;15.20;9.02;;;9.60;69.90;;;;;;5075193;28;20736;-75
2021/04/21 04:30:22;;;;;;;12.20;8.88;;;9.60;69.90;;;;;;5075759;28;20071;-75
2021/04/21 04:32:50;;;;;;;11.90;8.98;;;9.50;69.80;;;;;;5075214;28;20099;-75
2021/04/21 04:35:16;;;;;;;11.65;9.15;;;9.60;69.90;;;;;;5074976;28;20032;-76
2021/04/21 04:37:42;;;;;;;13.70;9.00;;;9.50;69.80;;;;;;5074860;28;20100;-76
2021/04/21 04:40:10;;;;;;;16.67;10.40;;;9.50;69.80;;;;;;5073581;28;20483;-76
2021/04/21 04:42:37;;;;;;;16.10;10.65;;;9.50;69.90;;;;;;5073308;28;20024;-74
2021/04/21 04:45:05;;;;;;;16.75;10.30;;;9.40;69.80;;;;;;5073464;28;20020;-76
2021/04/21 04:47:50;;;;;;;16.77;10.05;;;9.40;69.90;;;;;;5073328;28;20035;-76
2021/04/21 04:50:18;;;;;;;16.65;11.02;;;9.40;70.20;;;;;;5074415;28;20044;-76
2021/04/21 04:52:46;;;;;;;14.32;10.73;;;9.20;70.30;;;;;;5073257;28;20361;-76
2021/04/21 04:55:14;;;;;;;19.58;12.73;;;9.20;70.60;;;;;;5073259;28;20029;-76
2021/04/21 04:57:45;;;;;;;18.20;11.73;;;9.10;70.90;;;;;;5073198;28;20031;-76
2021/04/21 05:00:13;;;;;;;19.48;13.00;;;9.00;71.40;;;;;;5074854;28;20042;-75
2021/04/21 05:02:59;;;;;;;20.75;13.05;;;8.90;71.70;;;;;;5074498;28;20460;-76
2021/04/21 05:05:27;;;;;;;16.48;11.95;;;8.80;71.80;;;;;;5073023;28;20102;-76
2021/04/21 05:08:04;;;;;;;20.92;13.13;;;8.70;72.00;;;;;;5072938;28;20027;-76
2021/04/21 05:10:39;;;;;;;20.20;12.68;;;8.70;72.30;;;;;;5072991;28;20031;-76
2021/04/21 05:13:05;;;;;;;15.88;12.23;;;8.70;72.30;;;;;;5074892;28;20099;-77
2021/04/21 05:16:00;;;;;;;18.35;12.30;;;8.70;72.40;;;;;;5073039;28;20455;-76
2021/04/21 05:18:31;;;;;;;15.82;11.38;;;8.70;72.40;;;;;;5072995;28;20108;-75
2021/04/21 05:21:28;;;;;;;15.63;11.48;;;8.60;72.30;;;;;;5074237;28;20078;-75
2021/04/21 05:23:59;;;;;;;15.63;11.43;;;8.70;72.30;;;;;;5072830;28;20369;-75
2021/04/21 05:26:35;;;;;;;15.18;11.05;;;8.70;72.30;;;;;;5074516;28;20037;-76
2021/04/21 05:29:25;;;;;;;17.17;10.43;;;8.80;72.20;;;;;;5074078;28;20024;-75
2021/04/21 05:32:15;;;;;;;14.27;10.73;;;8.90;72.10;;;;;;5073936;28;20032;-75
2021/04/21 05:35:00;;;;;;;14.70;10.10;;;9.00;71.90;;;;;;5072439;28;20513;-75
2021/04/21 05:37:44;;;;;;;11.43;8.27;;;9.00;71.60;;;;;;5072482;28;20127;-75
2021/04/21 05:40:43;;;;;;;14.35;9.73;;;9.20;71.40;;;;;;5072514;28;20024;-76
2021/04/21 05:43:28;;;;;;;12.68;9.80;;;9.20;71.00;;;;;;5073598;28;20052;-76
2021/04/21 05:46:09;;;;;;;13.55;10.13;;;9.30;70.90;;;;;;5072209;28;20032;-75
2021/04/21 05:48:35;;;;;;;14.48;10.27;;;9.30;70.60;;;;;;5072070;28;20029;-75
2021/04/21 05:51:22;;;;;;;13.93;10.32;;;9.40;70.60;;;;;;5071950;28;20048;-76
2021/04/21 05:54:06;;;;;;;15.75;9.98;;;9.40;70.40;;;;;;5072100;28;20044;-75
2021/04/21 05:57:02;;;;;;;14.55;9.85;;;9.50;70.20;;;;;;5072170;28;20438;-76
2021/04/21 06:00:18;;;;;;;12.38;10.05;;;9.50;69.90;;;;;;5072057;28;20035;-76
2021/04/21 06:02:46;;;;;;;13.45;9.45;;;9.60;69.80;;;;;;5063443;28;20043;-76
2021/04/21 06:05:14;;;;;;;13.32;9.57;;;9.60;69.50;;;;;;5072104;28;20078;-76
2021/04/21 06:07:41;;;;;;;13.07;9.90;;;9.60;69.40;;;;;;5073511;28;20025;-76
2021/04/21 06:10:23;;;;;;;13.60;9.32;;;9.70;69.40;;;;;;5073550;28;20532;-76
2021/04/21 06:12:55;;;;;;;14.63;9.73;;;9.70;69.40;;;;;;5071829;28;20032;-76
2021/04/21 06:15:29;;;;;;;15.38;10.35;;;9.70;69.30;;;;;;5071834;28;20050;-76
2021/04/21 06:17:57;;;;;;;17.08;9.80;;;9.80;69.20;;;;;;5071698;28;20107;-76
2021/04/21 06:20:36;;;;;;;12.27;8.50;;;9.90;69.00;;;;;;5071602;28;20107;-76
2021/04/21 06:23:09;;;;;;;14.90;8.82;;;9.90;68.70;;;;;;5072919;28;20100;-76
2021/04/21 06:25:38;;;;;;;12.52;8.30;;;10.00;68.40;;;;;;5072962;28;20025;-76
2021/04/21 06:28:09;;;;;;;12.95;8.10;;;10.10;68.20;;;;;;5073242;28;20104;-76
2021/04/21 06:30:35;;;;;;;11.52;7.72;;;10.20;67.90;;;;;;5073098;28;20021;-76
2021/04/21 06:33:03;;;;;;;11.18;8.10;;;10.30;67.60;;;;;;5071465;28;20484;-76
2021/04/21 06:35:30;;;;;;;13.65;7.85;;;10.40;67.30;;;;;;5072542;28;20381;-75
2021/04/21 06:37:56;;;;;;;10.45;7.72;;;10.50;67.00;;;;;;5071395;28;20029;-75
2021/04/21 06:40:27;;;;;;;10.82;7.68;;;10.60;66.60;;;;;;5072694;28;20020;-76
2021/04/21 06:42:54;;;;;;;12.07;7.70;;;10.70;66.30;;;;;;5072874;28;20040;-75
2021/04/21 06:45:38;;;;;;;11.45;7.70;;;10.80;66.60;;;;;;5071414;28;20039;-75
2021/04/21 06:48:05;;;;;;;;;;;10.80;65.50;;;;;;5072120;28;20040;-75
2021/04/21 06:50:37;;;;;;;10.68;7.57;;;10.90;65.30;;;;;;5071391;28;20248;-75
2021/04/21 06:53:08;;;;;;;10.25;7.43;;;11.00;65.20;;;;;;5072565;28;20082;-76
2021/04/21 06:55:35;;;;;;;9.90;7.18;;;11.00;65.00;;;;;;5071168;28;20127;-75
2021/04/21 06:58:14;;;;;;;10.52;7.30;;;11.10;64.80;;;;;;5072932;28;20360;-75
2021/04/21 07:00:40;;;;;;;11.15;7.68;;;11.20;64.60;;;;;;5071439;28;20025;-75
2021/04/21 07:03:07;;;;;;;10.50;7.88;;;11.20;64.50;;;;;;5072681;28;20027;-75
2021/04/21 07:05:41;;;;;;;10.02;7.60;;;11.30;64.30;;;;;;5072501;28;20103;-75
2021/04/21 07:08:19;;;;;;;11.40;8.27;;;11.40;64.20;;;;;;5071122;28;20036;-75
2021/04/21 07:10:57;;;;;;;11.00;7.93;;;11.40;64.00;;;;;;5072469;28;20388;-75
2021/04/21 07:13:32;;;;;;;12.68;8.98;;;11.50;64.10;;;;;;5072343;28;20068;-75
2021/04/21 07:16:00;;;;;;;13.60;9.88;;;11.50;64.20;;;;;;5072689;28;20028;-75
2021/04/21 07:18:36;;;;;;;14.80;9.35;;;11.50;64.40;;;;;;5072545;28;20389;-75
2021/04/21 07:21:04;;;;;;;14.13;9.73;;;11.50;64.50;;;;;;5072345;28;20498;-75
2021/04/21 07:23:32;;;;;;;15.95;9.95;;;11.50;64.60;;;;;;5072246;28;20356;-75
2021/04/21 07:25:58;;;;;;;11.70;8.90;;;11.50;64.60;;;;;;5072346;28;20037;-75
2021/04/21 07:28:24;;;;;;;12.82;9.00;;;11.50;64.60;;;;;;5072241;28;20052;-75
2021/04/21 07:30:52;;;;;;;13.85;9.80;;;11.60;64.60;;;;;;5072287;28;20036;-75
2021/04/21 07:33:38;;;;;;;12.60;9.27;;;11.60;64.40;;;;;;5072374;28;20039;-75
2021/04/21 07:36:17;;;;;;;14.93;9.07;;;11.70;64.20;;;;;;5072576;28;20029;-75
2021/04/21 07:38:51;;;;;;;16.80;10.18;;;11.70;64.20;;;;;;5072384;28;20103;-74
2021/04/21 07:41:46;;;;;;;14.50;10.10;;;11.70;63.90;;;;;;5070907;28;20024;-74
2021/04/21 07:44:50;;;;;;;15.10;9.40;;;11.80;63.80;;;;;;5070914;28;20024;-74
2021/04/21 07:47:17;;;;;;;15.70;9.68;;;11.80;63.60;;;;;;5073576;28;20063;-74
2021/04/21 07:49:57;;;;;;;16.15;9.75;;;11.90;63.60;;;;;;5074389;28;20048;-74
2021/04/21 07:52:28;;;;;;;17.67;10.48;;;11.90;63.40;;;;;;5075822;28;20433;-75
2021/04/21 07:55:09;;;;;;;13.20;8.90;;;11.90;63.30;;;;;;5074798;28;20033;-75
2021/04/21 07:57:35;;;;;;;13.30;10.02;;;12.00;63.20;;;;;;5082017;28;20045;-75
2021/04/21 08:03:25;;;;;;;12.15;9.15;;;12.10;63.20;;;;;;5087533;28;20106;-76
2021/04/21 08:05:51;;;;;;;11.98;8.52;;;12.20;63.20;;;;;;5085605;28;20083;-77
2021/04/21 08:08:27;;;;;;;14.32;9.48;;;12.20;63.10;;;;;;5084861;28;20024;-77
2021/04/21 08:10:53;;;;;;;13.40;10.07;;;12.40;62.90;;;;;;5080170;28;20032;-77
2021/04/21 08:16:41;;;;;;;12.50;8.18;;;12.50;62.60;;;;;;5078940;28;20031;-76
2021/04/21 08:19:16;;;;;;;13.23;9.38;;;12.60;62.50;;;;;;5076252;28;20123;-76
2021/04/21 08:21:45;;;;;;;13.82;9.98;;;12.60;62.30;;;;;;5077592;28;20028;-75
2021/04/21 08:24:16;;;;;;;12.98;9.15;;;12.80;62.10;;;;;;5074278;28;20032;-75
2021/04/21 08:26:44;;;;;;;11.88;9.07;;;12.80;62.00;;;;;;5076282;28;20048;-76
2021/04/21 08:29:12;;;;;;;14.45;9.60;;;12.90;61.50;;;;;;5076220;28;20037;-75
2021/04/21 08:31:38;;;;;;;16.75;9.65;;;13.00;61.40;;;;;;5074884;28;20041;-75
2021/04/21 08:34:05;;;;;;;11.32;8.70;;;13.10;61.40;;;;;;5073955;28;20032;-75
2021/04/21 08:36:30;;;;;;;12.18;8.60;;;13.20;61.20;;;;;;5075678;28;20098;-75
2021/04/21 08:38:56;;;;;;;12.23;8.88;;;13.30;60.80;;;;;;5075383;28;20052;-74
2021/04/21 08:41:23;;;;;;;12.68;8.70;;;13.30;60.40;;;;;;5076263;28;20021;-75
2021/04/21 08:43:51;;;;;;;11.60;8.70;;;13.40;60.40;;;;;;5080902;28;20463;-75
2021/04/21 08:46:18;;;;;;;13.18;9.10;;;13.40;60.80;;;;;;5073988;28;20024;-74
2021/04/21 08:48:45;;;;;;;12.68;8.30;;;13.50;59.90;;;;;;5074858;28;20025;-74
2021/04/21 08:51:22;;;;;;;13.32;8.90;;;13.60;59.80;;;;;;5074826;28;20051;-75
2021/04/21 08:53:54;;;;;;;14.70;9.18;;;13.70;59.50;;;;;;5074712;28;20036;-75
2021/04/21 08:56:22;;;;;;;18.20;8.82;;;13.70;59.40;;;;;;5073997;28;20451;-76
2021/04/21 08:58:50;;;;;;;12.05;9.30;;;13.80;59.30;;;;;;5073025;28;20025;-76
2021/04/21 09:01:16;;;;;;;14.15;9.15;;;13.90;58.60;;;;;;5074759;28;20029;-76
2021/04/21 09:03:49;;;;;;;14.05;8.95;;;13.90;58.30;;;;;;5073285;28;20020;-76
2021/04/21 09:06:17;;;;;;;12.60;8.25;;;14.00;58.40;;;;;;5073595;28;20031;-76
2021/04/21 09:08:45;;;;;;;11.02;7.68;;;14.00;58.10;;;;;;5074392;28;20484;-76
2021/04/21 09:11:11;;;;;;;10.10;7.50;;;14.10;58.00;;;;;;5073239;28;20020;-75
2021/04/21 09:13:37;;;;;;;11.18;7.50;;;14.20;57.80;;;;;;5073037;28;20035;-76
2021/04/21 09:16:03;;;;;;;11.95;8.18;;;14.30;57.10;;;;;;5073128;28;20028;-75
2021/04/21 09:18:31;;;;;;;16.77;8.05;;;14.40;56.20;;;;;;5074643;28;20028;-76
2021/04/21 09:21:01;;;;;;;11.05;7.95;;;14.40;55.70;;;;;;5074502;28;20035;-75
2021/04/21 09:23:37;;;;;;;16.35;8.27;;;14.40;55.70;;;;;;5074670;28;20111;-76
2021/04/21 09:26:12;;;;;;;10.93;7.75;;;14.50;55.00;;;;;;5072949;28;20031;-76
2021/04/21 09:28:40;;;;;;;13.18;7.38;;;14.60;53.60;;;;;;5072968;28;20082;-76
2021/04/21 09:31:12;;;;;;;11.63;7.40;;;14.60;54.20;;;;;;5074500;28;20016;-76
2021/04/21 09:33:37;;;;;;;10.38;6.55;;;14.60;53.60;;;;;;5072996;28;20115;-75
2021/04/21 09:36:03;;;;;;;10.55;6.80;;;14.70;53.60;;;;;;5072776;28;20067;-76
2021/04/21 09:38:29;;;;;;;11.75;6.63;;;14.70;53.40;;;;;;5073972;28;20116;-75
2021/04/21 09:40:57;;;;;;;9.25;6.00;;;14.80;52.70;;;;;;5072549;28;20060;-75
2021/04/21 09:43:26;;;;;;;8.10;5.90;;;14.80;52.90;;;;;;5072741;28;20447;-75
2021/04/21 09:45:58;;;;;;;7.30;6.03;;;14.80;52.40;;;;;;5072501;28;20028;-75
2021/04/21 09:48:28;;;;;;;9.02;5.72;;;14.80;52.00;;;;;;5072485;28;20086;-75
2021/04/21 09:51:08;;;;;;;7.70;5.57;;;14.80;52.30;;;;;;5073488;28;20125;-76
2021/04/21 09:53:46;;;;;;;7.65;5.47;;;14.80;52.30;;;;;;5073884;28;20448;-75
2021/04/21 09:56:13;;;;;;;7.43;5.78;;;14.90;52.20;;;;;;5072693;28;20542;-76
2021/04/21 09:58:39;;;;;;;10.02;6.43;;;15.00;51.70;;;;;;5073761;28;20052;-76
2021/04/21 10:01:26;;;;;;;7.57;6.00;;;15.00;50.90;;;;;;5073858;28;20021;-77
2021/04/21 10:04:10;;;;;;;9.02;6.25;;;15.10;51.20;;;;;;5072313;28;20025;-76
2021/04/21 10:06:40;;;;;;;9.45;5.82;;;15.10;50.30;;;;;;5073483;28;20052;-75
2021/04/21 10:09:20;;;;;;;8.32;5.68;;;15.20;50.50;;;;;;5073449;28;20354;-75
2021/04/21 10:11:46;;;;;;;9.93;6.25;;;15.20;50.80;;;;;;5073440;28;20036;-75
2021/04/21 10:14:11;;;;;;;9.25;6.32;;;15.30;50.00;;;;;;5071862;28;20484;-75
2021/04/21 10:16:37;;;;;;;7.70;5.75;;;15.30;50.00;;;;;;5072089;28;20032;-75
2021/04/21 10:19:04;;;;;;;9.68;6.65;;;15.30;50.30;;;;;;5072036;28;20021;-76
2021/04/21 10:21:29;;;;;;;9.68;5.93;;;15.40;50.20;;;;;;5073730;28;20521;-74
2021/04/21 10:23:55;;;;;;;11.32;7.00;;;15.40;50.40;;;;;;5072088;28;20037;-74
2021/04/21 10:26:21;;;;;;;10.32;7.28;;;15.40;50.20;;;;;;5073421;28;20540;-75
2021/04/21 10:28:47;;;;;;;10.75;7.32;;;15.40;50.40;;;;;;5072002;28;20028;-75
2021/04/21 10:31:15;;;;;;;10.57;7.80;;;15.40;50.80;;;;;;5073428;28;20040;-76
2021/04/21 10:33:41;;;;;;;13.35;8.48;;;15.50;50.80;;;;;;5071753;28;20050;-75
2021/04/21 10:36:08;;;;;;;12.23;8.30;;;15.50;50.80;;;;;;5073190;28;20093;-75
2021/04/21 10:38:36;;;;;;;15.20;9.23;;;15.50;51.10;;;;;;5073348;28;20029;-76
2021/04/21 10:41:21;;;;;;;9.85;7.60;;;15.50;51.00;;;;;;5073212;28;20020;-75
2021/04/21 10:43:48;;;;;;;13.07;8.65;;;15.60;51.20;;;;;;5073182;28;20561;-75
2021/04/21 10:46:14;;;;;;;14.52;7.70;;;15.70;51.30;;;;;;5073163;28;20020;-75
2021/04/21 10:48:45;;;;;;;12.38;8.23;;;15.70;51.20;;;;;;5073071;28;20035;-77
2021/04/21 10:51:40;;;;;;;11.32;8.13;;;15.90;51.30;;;;;;5073027;28;20037;-75
2021/04/21 10:54:09;;;;;;;13.18;9.07;;;16.10;51.10;;;;;;5073054;28;20040;-76
2021/04/21 10:56:36;;;;;;;12.30;8.50;;;16.20;50.90;;;;;;5073251;28;20468;-75
2021/04/21 10:59:04;;;;;;;13.43;8.85;;;16.40;51.00;;;;;;5071822;28;20024;-75
2021/04/21 11:01:38;;;;;;;11.43;7.95;;;16.50;51.30;;;;;;5073134;28;20091;-76
2021/04/21 11:04:05;;;;;;;13.95;9.43;;;16.60;51.00;;;;;;5073362;28;20087;-75
2021/04/21 11:06:40;;;;;;;14.18;9.13;;;16.70;51.00;;;;;;5071755;28;20090;-75
2021/04/21 11:09:16;;;;;;;13.63;9.95;;;16.70;51.10;;;;;;5071640;28;20032;-75
2021/04/21 11:11:48;;;;;;;16.20;10.10;;;16.60;51.50;;;;;;5071709;28;20021;-75
2021/04/21 11:14:15;;;;;;;14.65;10.20;;;16.50;51.70;;;;;;5071822;28;20025;-76
2021/04/21 11:16:43;;;;;;;15.60;10.85;;;16.30;51.90;;;;;;5072949;28;20540;-75
2021/04/21 11:19:17;;;;;;;15.80;10.43;;;16.10;52.20;;;;;;5073515;28;20472;-76
2021/04/21 11:21:44;;;;;;;16.15;9.63;;;16.10;52.20;;;;;;5076506;28;20468;-75
2021/04/21 11:24:11;;;;;;;15.20;10.32;;;16.20;52.00;;;;;;5075701;28;20067;-75
2021/04/21 11:26:39;;;;;;;12.48;9.13;;;16.30;50.90;;;;;;5076938;28;20024;-75
2021/04/21 11:29:08;;;;;;;11.55;8.82;;;16.40;50.40;;;;;;5075571;28;20174;-75
2021/04/21 11:31:40;;;;;;;12.38;8.90;;;16.40;50.10;;;;;;5075430;28;20028;-76
2021/04/21 11:34:32;;;;;;;15.93;9.43;;;16.40;50.00;;;;;;5075618;28;20035;-75
2021/04/21 11:37:17;;;;;;;10.57;8.20;;;16.40;49.90;;;;;;5076953;28;20025;-76
2021/04/21 11:39:46;;;;;;;12.73;8.52;;;16.50;50.30;;;;;;5075259;28;20024;-75
2021/04/21 11:42:44;;;;;;;10.77;8.02;;;16.60;50.20;;;;;;5075052;28;20024;-76
2021/04/21 11:45:22;;;;;;;15.15;9.68;;;16.80;50.20;;;;;;5075058;28;20044;-75
2021/04/21 11:47:53;;;;;;;15.88;9.93;;;16.80;50.10;;;;;;5076372;28;20418;-75
2021/04/21 11:50:29;;;;;;;12.73;8.75;;;16.80;50.10;;;;;;5074946;28;20118;-77
2021/04/21 11:53:13;;;;;;;11.95;8.30;;;16.70;50.30;;;;;;5074689;28;20397;-76
2021/04/21 11:55:44;;;;;;;13.00;8.68;;;16.60;50.00;;;;;;5074863;28;20024;-75
2021/04/21 11:58:33;;;;;;;11.57;8.00;;;16.50;49.60;;;;;;5074896;28;20030;-75
2021/04/21 12:04:21;;;;;;;11.98;8.40;;;16.40;49.90;;;;;;5076461;28;20050;-77
2021/04/21 12:06:47;;;;;;;11.10;8.02;;;16.40;50.10;;;;;;5074743;28;20032;-77
2021/04/21 12:09:13;;;;;;;14.20;9.45;;;16.30;50.40;;;;;;5075954;28;20046;-76
2021/04/21 12:11:39;;;;;;;15.07;10.38;;;16.30;51.10;;;;;;5074582;28;20109;-76
2021/04/21 12:14:04;;;;;;;16.85;11.38;;;16.20;52.10;;;;;;5074487;28;20090;-76
2021/04/21 12:16:36;;;;;;;17.02;11.35;;;16.10;53.10;;;;;;5075869;28;20032;-75
2021/04/21 12:19:01;;;;;;;17.20;10.25;;;15.80;54.40;;;;;;5075932;28;20085;-78
2021/04/21 12:21:30;;;;;;;17.85;12.15;;;15.60;54.90;;;;;;5074444;28;20103;-76
2021/04/21 12:24:01;;;;;;;21.08;12.27;;;15.60;56.30;;;;;;5074591;28;20408;-76
2021/04/21 12:26:35;;;;;;;14.20;9.80;;;15.40;56.40;;;;;;5075593;28;20024;-75
2021/04/21 12:29:13;;;;;;;15.18;9.80;;;15.20;56.50;;;;;;5074395;28;20052;-76
2021/04/21 12:31:40;;;;;;;14.95;9.43;;;15.20;56.80;;;;;;5074374;28;20025;-76
2021/04/21 12:34:12;;;;;;;22.25;11.38;;;15.30;56.80;;;;;;5074293;28;20078;-76
2021/04/21 12:36:38;;;;;;;13.68;8.50;;;15.50;56.90;;;;;;5074295;28;20117;-76
2021/04/21 12:39:09;;;;;;;16.17;8.43;;;15.60;56.70;;;;;;5075601;28;20032;-76
2021/04/21 12:41:36;;;;;;;14.07;7.65;;;15.80;56.60;;;;;;5074416;28;20047;-77
2021/04/21 12:44:40;;;;;;;9.77;7.32;;;15.90;56.20;;;;;;5074175;28;20030;-76
2021/04/21 12:47:08;;;;;;;10.80;7.30;;;16.00;55.80;;;;;;5063856;28;20342;-76
2021/04/21 12:49:37;;;;;;;9.57;6.55;;;16.00;55.50;;;;;;5073733;28;20032;-76
2021/04/21 12:52:05;;;;;;;10.07;6.75;;;15.90;55.40;;;;;;5075303;28;20387;-75
2021/04/21 12:54:31;;;;;;;11.88;6.00;;;15.80;55.50;;;;;;5074938;28;20033;-76
2021/04/21 12:56:56;;;;;;;9.13;5.25;;;15.80;55.40;;;;;;5073776;28;20147;-76
2021/04/21 12:59:22;;;;;;;6.30;4.88;;;15.80;55.20;;;;;;5074908;28;20017;-77
2021/04/21 13:01:48;;;;;;;9.15;4.38;;;15.80;55.10;;;;;;5073554;28;20365;-75
2021/04/21 13:04:16;;;;;;;7.47;3.95;;;16.00;55.20;;;;;;5074798;28;20471;-75
2021/04/21 13:06:45;;;;;;;6.47;3.83;;;16.10;54.60;;;;;;5074937;28;20021;-76
2021/04/21 13:09:16;;;;;;;5.70;4.00;;;16.10;54.40;;;;;;5073629;28;20502;-76
2021/04/21 13:11:44;;;;;;;15.70;5.55;;;16.10;54.10;;;;;;5073398;28;20051;-76
2021/04/21 13:14:12;;;;;;;5.13;3.80;;;16.00;53.80;;;;;;5073132;28;20020;-76
2021/04/21 13:16:39;;;;;;;5.40;3.40;;;15.90;53.90;;;;;;5073367;28;20028;-76
2021/04/21 13:19:21;;;;;;;7.43;3.40;;;16.00;53.90;;;;;;5074659;28;20100;-76
2021/04/21 13:22:08;;;;;;;4.50;3.20;;;16.00;53.50;;;;;;5074361;28;20495;-75